Aurora, North Carolina
Current Conditions -  °F | °C
As of 12:54 PM on Saturday 20 Dec 2014 (Local Time) from KEWN Reporting Station
Light Rain Light Rain  
Wind Chill:   Ceiling: 7000
Heat Index:   Visibility: 7mi
Dew Point:   Wind: 6mph
Humidity: 80%   Direction: 20°NNE
Pressure: 30.26"   Gusts: NA
Location:  35.31°N, 76.79°W
Report Text: KEWN 201754Z 02005KT 7SM -RA OVC070 06/03 A3026 RMK AO2 SLP247 P0004 60005 T00610028 10067 20044 58009
Loading
Personal Weather Stations






























Interactive Weather Map New forecast layout! Learn more

10-Day Weather Forecast

Advertisements
Track Severe Weather on mobile